HLL weather

Complejo Llao Llao Heliport
San Carlos De Bariloche, Río Negro Province, Argentina

Public forecast

Using degrees Celsius for public forecast. Weather courtesy of forecast.io.

METAR (pilot weather report)

Closest report is San Carlos De Bariloche Airport, 18.0 nm (33.3 km) ESE. Retrieved 2019/05/25 04:00 UTC (26 minutes ago):

SAZS 250400Z 29007KT 9999 SCT040 SCT100 08/06 Q1010

TAF (pilot weather forecast)

Forecast is more than 12 hours old.

Closest forecast is San Carlos De Bariloche Airport, 18.0 nm (33.3 km) ESE. Retrieved 2019/05/24 00:00 UTC (1 day ago):

TAF SAZS 242300Z 2500/2506 29010KT 9999 BKN035 SCT100 TX12/2518Z TNM03/2511Z BECMG 2501/2503 VRB03KT BKN020 BECMG 2512/2514 29015KT CAVOK